Bostonia, California
Current Conditions -  °F | °C
As of 12:15 PM on Friday 28 Nov 2014 (Local Time) from KSEE Reporting Station
Clear Clear  
Wind Chill: 86°   Ceiling: Unl
Heat Index: 86°   Visibility: NA
Dew Point: 25°   Wind: 0mph
Humidity: 11%   Direction: NA
Pressure: 29.96"   Gusts: NA
Location:  32.81°N, 116.93°W
Report Text: KSEE 282015Z AUTO 00000KT CLR 30/M04 A2996 RMK AO2
Loading
Personal Weather Stations






























Interactive Weather Map New forecast layout! Learn more

10-Day Weather Forecast

Advertisements
Track Severe Weather on mobile